createdAt,value
2022-11-01T00:02:09.792Z,100.00
2022-11-01T00:04:37.707Z,100.00
2022-11-01T00:07:05.965Z,100.00
2022-11-01T00:09:33.224Z,100.00
2022-11-01T00:12:00.487Z,100.00
2022-11-01T00:14:27.740Z,100.00
2022-11-01T00:16:54.988Z,100.00
2022-11-01T00:19:22.468Z,100.00
2022-11-01T00:21:50.110Z,100.00
2022-11-01T00:24:17.374Z,100.00
2022-11-01T00:26:44.764Z,100.00
2022-11-01T00:29:13.223Z,100.00
2022-11-01T00:31:42.705Z,99.96
2022-11-01T00:34:09.975Z,100.00
2022-11-01T00:36:37.203Z,100.00
2022-11-01T00:39:06.903Z,100.00
2022-11-01T00:41:35.148Z,100.00
2022-11-01T00:44:02.549Z,99.87
2022-11-01T00:46:30.792Z,99.04
2022-11-01T00:48:58.809Z,99.32
2022-11-01T00:51:26.984Z,99.53
2022-11-01T00:53:54.236Z,99.90
2022-11-01T00:56:21.538Z,99.80
2022-11-01T00:58:48.689Z,99.86
2022-11-01T01:01:16.109Z,99.69
2022-11-01T01:03:43.568Z,99.76
2022-11-01T01:06:10.793Z,99.61
2022-11-01T01:08:38.168Z,98.33
2022-11-01T01:11:05.411Z,97.18
2022-11-01T01:13:32.662Z,97.05
2022-11-01T01:16:00.030Z,97.32
2022-11-01T01:18:27.366Z,98.42
2022-11-01T01:21:05.431Z,99.04
2022-11-01T01:23:33.040Z,99.86
2022-11-01T01:26:04.392Z,100.00
2022-11-01T01:28:31.579Z,100.00
2022-11-01T01:30:58.793Z,100.00
2022-11-01T01:33:26.045Z,99.63
2022-11-01T01:35:53.313Z,99.22
2022-11-01T01:38:20.655Z,99.22
2022-11-01T01:40:47.921Z,99.32
2022-11-01T01:43:15.163Z,99.69
2022-11-01T01:45:42.949Z,99.67
2022-11-01T01:48:26.256Z,99.98
2022-11-01T01:50:59.454Z,99.25
2022-11-01T01:53:32.938Z,99.78
2022-11-01T01:56:09.462Z,100.00
2022-11-01T01:58:43.557Z,100.00
2022-11-01T02:01:11.670Z,100.00
2022-11-01T02:03:41.108Z,100.00
2022-11-01T02:06:15.674Z,100.00
2022-11-01T02:09:04.280Z,100.00
2022-11-01T02:11:31.544Z,100.00
2022-11-01T02:13:58.890Z,99.97
2022-11-01T02:16:57.691Z,99.70
2022-11-01T02:20:01.623Z,100.00
2022-11-01T02:22:37.593Z,100.00
2022-11-01T02:25:23.444Z,100.00
2022-11-01T02:28:22.264Z,100.00
2022-11-01T02:31:30.654Z,100.00
2022-11-01T02:34:04.273Z,100.00
2022-11-01T02:37:04.480Z,100.00
2022-11-01T02:39:40.374Z,100.00
2022-11-01T02:42:42.498Z,100.00
2022-11-01T02:45:35.578Z,100.00
2022-11-01T02:48:05.204Z,100.00
2022-11-01T02:50:57.127Z,100.00
2022-11-01T02:53:24.407Z,100.00
2022-11-01T02:55:53.265Z,100.00
2022-11-01T02:58:24.873Z,100.00
2022-11-01T03:00:52.538Z,100.00
2022-11-01T03:03:35.514Z,100.00
2022-11-01T03:06:17.602Z,100.00
2022-11-01T03:08:54.064Z,100.00
2022-11-01T03:11:54.190Z,100.00
2022-11-01T03:14:44.586Z,100.00
2022-11-01T03:17:51.081Z,100.00
2022-11-01T03:20:27.837Z,100.00
2022-11-01T03:23:00.900Z,100.00
2022-11-01T03:25:39.236Z,99.58
2022-11-01T03:28:13.243Z,99.31
2022-11-01T03:30:44.934Z,99.29
2022-11-01T03:33:14.836Z,98.98
2022-11-01T03:35:48.251Z,99.11
2022-11-01T03:38:24.182Z,99.57
2022-11-01T03:41:01.018Z,100.00
2022-11-01T03:43:31.247Z,100.00
2022-11-01T03:45:58.509Z,100.00
2022-11-01T03:48:26.017Z,100.00
2022-11-01T03:50:57.539Z,100.00
2022-11-01T03:53:25.414Z,99.95
2022-11-01T03:55:52.553Z,99.96
2022-11-01T03:58:19.925Z,100.00
2022-11-01T04:00:47.253Z,100.00
2022-11-01T04:03:14.655Z,100.00
2022-11-01T04:05:42.704Z,100.00
2022-11-01T04:08:11.878Z,100.00
2022-11-01T04:10:39.158Z,100.00
2022-11-01T04:13:06.687Z,99.98
2022-11-01T04:15:52.244Z,100.00
2022-11-01T04:21:23.251Z,100.00
2022-11-01T04:23:50.921Z,100.00
2022-11-01T04:26:21.881Z,100.00
2022-11-01T04:28:59.253Z,100.00
2022-11-01T04:31:30.283Z,100.00
2022-11-01T04:33:59.587Z,100.00
2022-11-01T04:36:27.492Z,100.00
2022-11-01T04:38:56.993Z,100.00
2022-11-01T04:41:26.993Z,100.00
2022-11-01T04:43:57.726Z,100.00
2022-11-01T04:46:27.518Z,100.00
2022-11-01T04:48:54.707Z,100.00
2022-11-01T04:51:21.945Z,100.00
2022-11-01T04:53:49.192Z,100.00
2022-11-01T04:56:16.543Z,100.00
2022-11-01T04:58:46.435Z,100.00
2022-11-01T05:01:14.645Z,100.00
2022-11-01T05:03:43.148Z,100.00
2022-11-01T05:06:10.916Z,99.69
2022-11-01T05:08:38.448Z,99.77
2022-11-01T05:11:06.210Z,99.75
2022-11-01T05:13:33.466Z,99.87
2022-11-01T05:16:21.179Z,99.92
2022-11-01T05:18:49.164Z,100.00
2022-11-01T05:21:17.046Z,99.99
2022-11-01T05:23:48.112Z,100.00
2022-11-01T05:26:15.332Z,100.00
2022-11-01T05:28:42.516Z,100.00
2022-11-01T05:31:09.841Z,100.00
2022-11-01T05:33:37.027Z,100.00
2022-11-01T05:36:04.742Z,100.00
2022-11-01T05:38:32.314Z,100.00
2022-11-01T05:41:03.310Z,100.00
2022-11-01T05:43:30.712Z,100.00
2022-11-01T05:45:57.959Z,100.00
2022-11-01T05:48:25.107Z,100.00
2022-11-01T05:50:52.258Z,100.00
2022-11-01T05:53:19.450Z,99.96
2022-11-01T05:55:46.973Z,100.00
2022-11-01T05:58:14.659Z,100.00
2022-11-01T06:00:42.531Z,99.83
2022-11-01T06:03:10.105Z,99.53
2022-11-01T06:05:39.058Z,99.39
2022-11-01T06:08:06.725Z,98.67
2022-11-01T06:10:34.080Z,98.26
2022-11-01T06:13:02.053Z,97.70
2022-11-01T06:15:32.177Z,97.31
2022-11-01T06:18:02.201Z,97.35
2022-11-01T06:20:31.825Z,96.94
2022-11-01T06:22:59.979Z,96.55
2022-11-01T06:25:28.070Z,96.53
2022-11-01T06:27:55.511Z,96.61
2022-11-01T06:30:22.777Z,96.57
2022-11-01T06:32:50.302Z,96.38
2022-11-01T06:35:17.870Z,96.25
2022-11-01T06:37:45.127Z,96.29
2022-11-01T06:40:12.894Z,96.19
2022-11-01T06:42:45.445Z,96.16
2022-11-01T06:45:14.262Z,95.82
2022-11-01T06:47:47.135Z,96.18
2022-11-01T06:50:14.432Z,96.19
2022-11-01T06:52:41.640Z,95.68
2022-11-01T06:55:09.477Z,95.16
2022-11-01T06:57:37.074Z,95.29
2022-11-01T07:00:05.841Z,94.70
2022-11-01T07:02:33.341Z,94.25
2022-11-01T07:05:00.784Z,93.83
2022-11-01T07:07:28.238Z,93.06
2022-11-01T07:09:55.384Z,93.12
2022-11-01T07:12:22.642Z,92.87
2022-11-01T07:14:49.899Z,92.22
2022-11-01T07:17:17.258Z,91.92
2022-11-01T07:19:45.148Z,91.96
2022-11-01T07:22:13.897Z,91.52
2022-11-01T07:24:41.055Z,90.95
2022-11-01T07:27:08.832Z,90.46
2022-11-01T07:29:36.082Z,89.72
2022-11-01T07:32:03.632Z,89.20
2022-11-01T07:34:31.110Z,88.29
2022-11-01T07:36:58.347Z,88.08
2022-11-01T07:39:25.819Z,87.88
2022-11-01T07:41:54.083Z,87.67
2022-11-01T07:44:21.963Z,87.02
2022-11-01T07:46:49.305Z,86.83
2022-11-01T07:49:16.560Z,85.79
2022-11-01T07:51:44.435Z,84.66
2022-11-01T07:54:11.635Z,83.65
2022-11-01T07:56:38.827Z,83.22
2022-11-01T07:59:05.976Z,83.07
2022-11-01T08:01:33.260Z,82.06
2022-11-01T08:04:00.686Z,81.16
2022-11-01T08:06:27.954Z,81.05
2022-11-01T08:08:55.152Z,80.20
2022-11-01T08:11:22.566Z,79.99
2022-11-01T08:13:49.807Z,78.71
2022-11-01T08:16:17.784Z,78.30
2022-11-01T08:18:45.126Z,77.88
2022-11-01T08:21:18.124Z,77.76
2022-11-01T08:23:46.188Z,76.90
2022-11-01T08:26:15.084Z,75.89
2022-11-01T08:28:42.671Z,75.29
2022-11-01T08:31:10.622Z,74.65
2022-11-01T08:33:37.974Z,74.01
2022-11-01T08:36:05.985Z,74.04
2022-11-01T08:38:33.227Z,73.31
2022-11-01T08:41:00.442Z,72.79
2022-11-01T08:43:27.727Z,72.03
2022-11-01T08:45:54.955Z,71.74
2022-11-01T08:48:22.228Z,71.48
2022-11-01T08:50:49.563Z,70.68
2022-11-01T08:53:16.939Z,70.24
2022-11-01T08:55:44.199Z,70.19
2022-11-01T08:58:12.038Z,70.63
2022-11-01T09:00:39.302Z,69.39
2022-11-01T09:03:06.754Z,67.97
2022-11-01T09:05:34.828Z,68.09
2022-11-01T09:08:02.604Z,67.31
2022-11-01T09:10:30.803Z,66.79
2022-11-01T09:13:00.238Z,66.35
2022-11-01T09:15:27.933Z,66.24
2022-11-01T09:17:55.183Z,66.02
2022-11-01T09:20:23.710Z,66.07
2022-11-01T09:22:54.293Z,65.74
2022-11-01T09:25:21.554Z,66.07
2022-11-01T09:27:48.803Z,65.14
2022-11-01T09:30:16.152Z,65.20
2022-11-01T09:32:43.409Z,65.36
2022-11-01T09:35:10.672Z,64.98
2022-11-01T09:37:37.920Z,64.37
2022-11-01T09:40:06.757Z,64.15
2022-11-01T09:42:41.630Z,63.88
2022-11-01T09:45:30.507Z,62.93
2022-11-01T09:47:59.678Z,62.99
2022-11-01T09:50:34.436Z,62.95
2022-11-01T09:53:07.926Z,62.47
2022-11-01T09:56:05.074Z,62.39
2022-11-01T09:58:50.457Z,62.28
2022-11-01T10:02:09.665Z,60.96
2022-11-01T10:05:26.273Z,60.93
2022-11-01T10:08:17.473Z,60.32
2022-11-01T10:11:08.784Z,60.34
2022-11-01T10:14:37.467Z,60.29
2022-11-01T10:17:18.468Z,58.17
2022-11-01T10:19:50.505Z,56.78
2022-11-01T10:22:29.633Z,57.31
2022-11-01T10:25:03.855Z,56.46
2022-11-01T10:28:15.644Z,55.76
2022-11-01T10:31:05.221Z,55.32
2022-11-01T10:33:41.194Z,55.44
2022-11-01T10:36:25.711Z,54.92
2022-11-01T10:42:15.550Z,53.67
2022-11-01T10:44:54.057Z,52.02
2022-11-01T10:47:24.490Z,51.84
2022-11-01T10:50:05.885Z,52.36
2022-11-01T10:53:05.439Z,51.01
2022-11-01T10:55:48.922Z,50.83
2022-11-01T10:58:43.427Z,51.12
2022-11-01T11:01:18.141Z,50.29
2022-11-01T11:03:47.842Z,48.81
2022-11-01T11:06:16.105Z,49.08
2022-11-01T11:08:49.059Z,48.50
2022-11-01T11:11:18.313Z,48.19
2022-11-01T11:13:53.720Z,47.33
2022-11-01T11:16:31.262Z,46.95
2022-11-01T11:19:08.038Z,46.43
2022-11-01T11:21:35.496Z,46.66
2022-11-01T11:24:03.447Z,47.09
2022-11-01T11:26:40.035Z,46.15
2022-11-01T11:29:07.558Z,46.46
2022-11-01T11:31:34.894Z,45.61
2022-11-01T11:34:28.835Z,45.63
2022-11-01T11:36:57.151Z,45.13
2022-11-01T11:39:31.425Z,45.19
2022-11-01T11:42:23.870Z,44.08
2022-11-01T11:45:06.877Z,43.81
2022-11-01T11:47:37.287Z,43.72
2022-11-01T11:50:20.132Z,43.60
2022-11-01T11:52:51.286Z,44.01
2022-11-01T11:56:02.053Z,43.04
2022-11-01T11:58:48.017Z,42.85
2022-11-01T12:01:23.231Z,43.08
2022-11-01T12:04:18.795Z,43.67
2022-11-01T12:06:46.661Z,42.87
2022-11-01T12:09:40.956Z,42.95
2022-11-01T12:12:34.642Z,43.31
2022-11-01T12:15:03.546Z,41.22
2022-11-01T12:17:44.077Z,40.29
2022-11-01T12:20:20.133Z,40.81
2022-11-01T12:23:00.494Z,40.69
2022-11-01T12:25:28.574Z,39.73
2022-11-01T12:28:35.554Z,38.94
2022-11-01T12:31:21.574Z,39.73
2022-11-01T12:34:18.195Z,39.93
2022-11-01T12:36:58.661Z,40.39
2022-11-01T12:39:53.252Z,39.05
2022-11-01T12:42:39.443Z,38.07
2022-11-01T12:45:22.074Z,38.37
2022-11-01T12:48:16.052Z,39.07
2022-11-01T12:51:16.974Z,38.71
2022-11-01T12:54:00.121Z,38.77
2022-11-01T12:56:27.373Z,38.83
2022-11-01T12:58:56.407Z,39.17
2022-11-01T13:01:44.574Z,39.11
2022-11-01T13:04:31.500Z,39.14
2022-11-01T13:07:19.872Z,39.01
2022-11-01T13:10:29.768Z,39.27
2022-11-01T13:13:46.336Z,39.82
2022-11-01T13:16:38.766Z,39.94
2022-11-01T13:19:45.441Z,40.44
2022-11-01T13:22:38.188Z,40.06
2022-11-01T13:25:52.698Z,40.42
2022-11-01T13:28:53.798Z,41.26
2022-11-01T13:32:01.524Z,41.76
2022-11-01T13:34:37.779Z,40.31
2022-11-01T13:37:16.124Z,39.84
2022-11-01T13:40:01.558Z,39.81
2022-11-01T13:43:04.631Z,41.09
2022-11-01T13:45:58.333Z,41.84
2022-11-01T13:48:58.961Z,42.77
2022-11-01T13:51:57.649Z,43.83
2022-11-01T13:54:37.544Z,45.27
2022-11-01T13:57:10.383Z,46.61
2022-11-01T13:59:37.539Z,47.74
2022-11-01T14:02:23.362Z,48.80
2022-11-01T14:05:10.418Z,49.70
2022-11-01T14:07:43.641Z,49.90
2022-11-01T14:10:16.937Z,50.40
2022-11-01T14:13:05.378Z,50.06
2022-11-01T14:15:38.799Z,49.34
2022-11-01T14:18:11.157Z,49.84
2022-11-01T14:20:38.411Z,50.66
2022-11-01T14:23:27.388Z,50.87
2022-11-01T14:26:25.339Z,51.46
2022-11-01T14:28:58.845Z,52.56
2022-11-01T14:31:31.515Z,53.47
2022-11-01T14:34:01.740Z,53.14
2022-11-01T14:36:34.237Z,53.80
2022-11-01T14:39:44.282Z,54.92
2022-11-01T14:42:19.264Z,55.46
2022-11-01T14:44:50.949Z,56.24
2022-11-01T14:47:37.579Z,56.60
2022-11-01T14:50:31.071Z,55.76
2022-11-01T14:53:09.497Z,56.66
2022-11-01T14:55:38.124Z,56.86
2022-11-01T14:58:30.810Z,57.69
2022-11-01T15:01:06.476Z,59.41
2022-11-01T15:03:34.125Z,59.90
2022-11-01T15:06:01.470Z,59.49
2022-11-01T15:08:40.852Z,60.42
2022-11-01T15:11:08.760Z,60.35
2022-11-01T15:13:40.630Z,59.15
2022-11-01T15:16:23.550Z,58.51
2022-11-01T15:18:58.821Z,58.43
2022-11-01T15:21:30.672Z,61.08
2022-11-01T15:23:59.799Z,60.58
2022-11-01T15:26:31.766Z,62.32
2022-11-01T15:29:03.968Z,64.15
2022-11-01T15:31:33.812Z,63.48
2022-11-01T15:34:01.263Z,63.95
2022-11-01T15:36:33.091Z,63.64
2022-11-01T15:39:03.822Z,63.53
2022-11-01T15:41:34.395Z,62.33
2022-11-01T15:44:07.989Z,64.65
2022-11-01T15:46:42.939Z,65.11
2022-11-01T15:50:06.160Z,66.71
2022-11-01T15:52:46.334Z,66.22
2022-11-01T15:55:29.059Z,67.41
2022-11-01T15:58:08.599Z,68.68
2022-11-01T16:00:44.575Z,70.00
2022-11-01T16:03:27.263Z,69.51
2022-11-01T16:06:00.013Z,70.67
2022-11-01T16:08:47.103Z,71.31
2022-11-01T16:11:22.004Z,73.58
2022-11-01T16:14:07.882Z,74.15
2022-11-01T16:19:45.416Z,74.18
2022-11-01T16:22:46.045Z,74.54
2022-11-01T16:25:24.177Z,74.92
2022-11-01T16:28:07.556Z,75.70
2022-11-01T16:30:56.565Z,76.18
2022-11-01T16:33:51.590Z,77.62
2022-11-01T16:36:20.285Z,79.20
2022-11-01T16:38:54.107Z,79.07
2022-11-01T16:41:33.975Z,78.32
2022-11-01T16:44:18.968Z,78.11
2022-11-01T16:46:48.058Z,80.19
2022-11-01T16:49:26.888Z,80.15
2022-11-01T16:51:58.954Z,81.71
2022-11-01T16:54:28.672Z,81.52
2022-11-01T16:56:58.794Z,81.65
2022-11-01T16:59:34.436Z,82.82
2022-11-01T17:02:29.938Z,83.72
2022-11-01T17:05:21.463Z,83.61
2022-11-01T17:07:50.173Z,81.55
2022-11-01T17:10:23.382Z,81.81
2022-11-01T17:12:54.138Z,83.41
2022-11-01T17:15:23.058Z,81.53
2022-11-01T17:17:51.767Z,81.61
2022-11-01T17:20:27.290Z,81.62
2022-11-01T17:22:57.886Z,80.52
2022-11-01T17:25:30.760Z,84.25
2022-11-01T17:27:59.348Z,83.09
2022-11-01T17:30:28.199Z,80.77
2022-11-01T17:32:56.926Z,80.18
2022-11-01T17:35:26.817Z,80.15
2022-11-01T17:37:56.575Z,81.34
2022-11-01T17:40:25.992Z,80.20
2022-11-01T17:42:55.745Z,78.97
2022-11-01T17:45:39.880Z,79.27
2022-11-01T17:48:08.873Z,78.64
2022-11-01T17:50:38.380Z,77.49
2022-11-01T17:53:09.220Z,77.26
2022-11-01T17:55:39.308Z,78.02
2022-11-01T17:58:10.035Z,78.08
2022-11-01T18:00:42.984Z,78.10
2022-11-01T18:03:15.120Z,78.55
2022-11-01T18:05:45.965Z,77.14
2022-11-01T18:08:25.203Z,78.20
2022-11-01T18:11:14.357Z,77.48
2022-11-01T18:14:02.661Z,77.95
2022-11-01T18:17:14.512Z,78.63
2022-11-01T18:20:09.645Z,79.48
2022-11-01T18:23:05.405Z,78.82
2022-11-01T18:26:03.625Z,80.23
2022-11-01T18:28:35.283Z,79.76
2022-11-01T18:31:31.988Z,80.76
2022-11-01T18:34:40.656Z,79.09
2022-11-01T18:37:15.406Z,81.08
2022-11-01T18:39:56.253Z,82.43
2022-11-01T18:42:25.947Z,82.45
2022-11-01T18:44:59.703Z,80.98
2022-11-01T18:47:35.102Z,82.58
2022-11-01T18:50:16.944Z,82.31
2022-11-01T18:52:46.225Z,80.84
2022-11-01T18:55:15.130Z,82.68
2022-11-01T18:57:43.792Z,83.44
2022-11-01T19:00:14.490Z,83.58
2022-11-01T19:02:43.121Z,82.13
2022-11-01T19:05:18.098Z,81.72
2022-11-01T19:08:10.949Z,81.75
2022-11-01T19:10:42.468Z,82.09
2022-11-01T19:13:23.109Z,83.14
2022-11-01T19:15:54.461Z,84.20
2022-11-01T19:18:23.965Z,84.58
2022-11-01T19:20:56.631Z,82.91
2022-11-01T19:23:43.150Z,85.13
2022-11-01T19:26:23.904Z,84.31
2022-11-01T19:28:53.196Z,83.21
2022-11-01T19:31:29.628Z,82.75
2022-11-01T19:34:03.294Z,84.93
2022-11-01T19:36:40.665Z,83.64
2022-11-01T19:39:27.152Z,84.36
2022-11-01T19:42:12.516Z,84.63
2022-11-01T19:44:41.359Z,85.09
2022-11-01T19:47:36.159Z,84.84
2022-11-01T19:50:51.330Z,85.75
2022-11-01T19:53:29.686Z,85.04
2022-11-01T19:56:12.843Z,85.52
2022-11-01T19:58:45.757Z,85.30
2022-11-01T20:01:17.655Z,85.08
2022-11-01T20:04:27.638Z,85.09
2022-11-01T20:07:14.214Z,84.96
2022-11-01T20:09:43.572Z,85.49
2022-11-01T20:12:12.578Z,85.91
2022-11-01T20:14:41.175Z,85.48
2022-11-01T20:17:09.862Z,85.13
2022-11-01T20:19:38.426Z,84.80
2022-11-01T20:22:07.145Z,84.86
2022-11-01T20:24:36.006Z,85.20
2022-11-01T20:27:04.598Z,84.73
2022-11-01T20:29:33.182Z,83.93
2022-11-01T20:32:01.648Z,85.13
2022-11-01T20:34:30.186Z,85.62
2022-11-01T20:39:47.368Z,85.33
2022-11-01T20:42:15.967Z,85.90
2022-11-01T20:44:44.661Z,86.23
2022-11-01T20:47:13.744Z,86.54
2022-11-01T20:49:42.351Z,85.90
2022-11-01T20:52:38.036Z,85.73
2022-11-01T20:54:59.678Z,85.57
2022-11-01T20:57:28.746Z,86.07
2022-11-01T20:59:57.604Z,87.17
2022-11-01T21:02:27.468Z,86.56
2022-11-01T21:05:14.999Z,86.95
2022-11-01T21:07:47.747Z,86.44
2022-11-01T21:10:31.728Z,86.65
2022-11-01T21:13:21.403Z,87.07
2022-11-01T21:15:52.587Z,87.07
2022-11-01T21:18:26.454Z,86.38
2022-11-01T21:20:55.354Z,85.29
2022-11-01T21:23:37.450Z,86.72
2022-11-01T21:26:36.219Z,86.93
2022-11-01T21:29:30.017Z,86.74
2022-11-01T21:31:58.596Z,86.43
2022-11-01T21:34:31.806Z,86.67
2022-11-01T21:37:01.113Z,86.37
2022-11-01T21:39:33.173Z,85.67
2022-11-01T21:42:22.782Z,86.25
2022-11-01T21:44:52.341Z,86.40
2022-11-01T21:47:33.103Z,85.72
2022-11-01T21:50:01.705Z,86.27
2022-11-01T21:52:30.342Z,87.13
2022-11-01T21:54:58.931Z,86.67
2022-11-01T21:57:27.564Z,86.00
2022-11-01T21:59:56.248Z,87.13
2022-11-01T22:02:24.858Z,85.97
2022-11-01T22:04:55.567Z,85.43
2022-11-01T22:07:24.254Z,86.41
2022-11-01T22:09:52.838Z,87.11
2022-11-01T22:12:21.483Z,87.05
2022-11-01T22:14:50.104Z,86.47
2022-11-01T22:17:18.797Z,87.16
2022-11-01T22:19:47.372Z,87.79
2022-11-01T22:22:15.995Z,87.38
2022-11-01T22:24:44.651Z,87.56
2022-11-01T22:27:13.338Z,86.66
2022-11-01T22:29:42.538Z,88.70
2022-11-01T22:32:11.331Z,88.90
2022-11-01T22:34:39.910Z,89.08
2022-11-01T22:37:13.336Z,88.99
2022-11-01T22:39:42.606Z,89.55
2022-11-01T22:42:16.329Z,89.65
2022-11-01T22:44:47.469Z,88.46
2022-11-01T22:47:29.096Z,89.27
2022-11-01T22:50:03.155Z,89.96
2022-11-01T22:52:38.751Z,90.28
2022-11-01T22:55:13.236Z,89.81
2022-11-01T22:58:05.818Z,89.30
2022-11-01T23:00:37.492Z,90.31
2022-11-01T23:03:26.400Z,91.26
2022-11-01T23:06:00.251Z,90.57
2022-11-01T23:08:38.924Z,90.73
2022-11-01T23:12:14.983Z,92.24
2022-11-01T23:14:45.834Z,92.15
2022-11-01T23:17:14.439Z,93.23
2022-11-01T23:19:43.091Z,91.91
2022-11-01T23:22:19.246Z,91.04
2022-11-01T23:24:54.697Z,91.54
2022-11-01T23:27:29.571Z,92.33
2022-11-01T23:30:01.698Z,92.63
2022-11-01T23:32:31.430Z,93.12
2022-11-01T23:35:17.915Z,93.17
2022-11-01T23:37:46.997Z,92.91
2022-11-01T23:40:19.502Z,93.30
2022-11-01T23:42:51.374Z,93.75
2022-11-01T23:45:34.158Z,93.98
2022-11-01T23:48:02.899Z,93.59
2022-11-01T23:50:35.829Z,93.80
2022-11-01T23:53:14.011Z,94.06
2022-11-01T23:55:53.711Z,94.17
2022-11-01T23:58:32.871Z,94.04
